Applegate, Oregon
Current Conditions -  °F | °C
As of 10:53 AM on Friday 24 Oct 2014 (Local Time) from KMFR Reporting Station
Haze Haze  
Wind Chill: 54°   Ceiling: 800
Heat Index: 54°   Visibility: 6mi
Dew Point: 51°   Wind: 5mph
Humidity: 90%   Direction: 340°NNW
Pressure: 29.9"   Gusts: NA
Location:  42.1499°N, 123.043°W
Report Text: KMFR 241753Z 34004KT 6SM BR BKN008 OVC100 12/11 A2990 RMK AO2 RAB1657E28 SLP124 P0000 60019 T01220106 10122 20111 56013
Loading
Personal Weather Stations






























Interactive Weather Map
Tropical Storm Tracking
New forecast layout! Learn more

10-Day Weather Forecast

Advertisements
Track Severe Weather on mobile